createdAt,value
2022-08-03T00:04:50.030Z,0
2022-08-03T00:10:26.362Z,0
2022-08-03T00:15:48.981Z,0
2022-08-03T00:21:11.341Z,0
2022-08-03T00:26:34.199Z,0
2022-08-03T00:32:00.986Z,0
2022-08-03T00:37:42.165Z,0
2022-08-03T00:43:05.031Z,0
2022-08-03T00:48:34.440Z,0
2022-08-03T00:53:59.583Z,0
2022-08-03T00:59:35.406Z,0
2022-08-03T01:04:58.254Z,0
2022-08-03T01:21:11.934Z,0
2022-08-03T01:26:34.721Z,0
2022-08-03T01:33:03.764Z,0
2022-08-03T01:38:26.984Z,0
2022-08-03T01:44:31.297Z,3
2022-08-03T01:49:53.872Z,0
2022-08-03T01:55:21.762Z,0
2022-08-03T02:00:44.617Z,0
2022-08-03T02:07:10.332Z,0
2022-08-03T02:12:36.172Z,0
2022-08-03T02:17:58.465Z,0
2022-08-03T02:23:24.029Z,0
2022-08-03T02:28:46.445Z,0
2022-08-03T02:34:08.977Z,0
2022-08-03T02:39:31.417Z,3
2022-08-03T02:44:54.747Z,0
2022-08-03T02:50:17.656Z,0
2022-08-03T02:55:46.127Z,0
2022-08-03T03:01:17.972Z,0
2022-08-03T03:06:47.023Z,0
2022-08-03T03:12:10.801Z,0
2022-08-03T03:23:03.623Z,0
2022-08-03T03:28:26.247Z,0
2022-08-03T03:33:48.688Z,0
2022-08-03T03:39:16.448Z,0
2022-08-03T03:45:01.146Z,8.1
2022-08-03T03:50:24.847Z,13
2022-08-03T03:56:06.341Z,23
2022-08-03T04:01:36.493Z,32
2022-08-03T04:06:59.248Z,32.2
2022-08-03T04:12:39.022Z,35
2022-08-03T04:18:13.246Z,41.6
2022-08-03T04:23:36.076Z,50
2022-08-03T04:29:08.173Z,63.7
2022-08-03T04:34:31.086Z,75.8
2022-08-03T04:39:57.948Z,116
2022-08-03T04:45:20.712Z,148.7
2022-08-03T05:01:31.592Z,188.3
2022-08-03T05:06:56.395Z,170.2
2022-08-03T05:12:23.397Z,215.4
2022-08-03T05:17:46.574Z,173.2
2022-08-03T05:23:09.081Z,145.2
2022-08-03T05:28:31.488Z,176.8
2022-08-03T05:33:53.991Z,203.8
2022-08-03T05:39:16.652Z,173.4
2022-08-03T05:44:39.077Z,217.1
2022-08-03T05:50:01.613Z,270.9
2022-08-03T05:56:16.497Z,331.8
2022-08-03T06:01:40.110Z,944.6
2022-08-03T06:07:02.996Z,343.4
2022-08-03T06:12:25.650Z,337
2022-08-03T06:17:58.701Z,525.4
2022-08-03T06:23:22.080Z,1197.7
2022-08-03T06:28:55.321Z,1997.8
2022-08-03T06:34:36.119Z,2056.8
2022-08-03T06:40:49.036Z,1865.1
2022-08-03T06:52:07.257Z,2272.5
2022-08-03T06:57:30.467Z,2200.7
2022-08-03T07:03:05.767Z,1986.5
2022-08-03T07:08:34.889Z,2276.1
2022-08-03T07:13:57.905Z,2898.8
2022-08-03T07:19:20.950Z,2223.6
2022-08-03T07:24:43.744Z,2052
2022-08-03T07:30:08.298Z,1790.8
2022-08-03T07:35:30.910Z,1799
2022-08-03T07:40:59.981Z,1347.7
2022-08-03T07:46:27.073Z,734.7
2022-08-03T07:51:50.341Z,1362.2
2022-08-03T07:57:13.247Z,695
2022-08-03T08:02:35.884Z,2702.1
2022-08-03T08:08:04.759Z,2582.1
2022-08-03T08:13:27.495Z,2764.2
2022-08-03T08:18:49.871Z,2908.9
2022-08-03T08:24:20.711Z,919.8
2022-08-03T08:30:00.600Z,3483.1
2022-08-03T08:35:28.205Z,3766.5
2022-08-03T08:40:51.489Z,4093.3
2022-08-03T08:46:24.345Z,3604.3
2022-08-03T08:52:01.866Z,3820.9
2022-08-03T08:57:43.770Z,3872.9
2022-08-03T09:03:06.825Z,3664.7
2022-08-03T09:08:29.532Z,3521.6
2022-08-03T09:15:17.918Z,3975
2022-08-03T09:20:40.829Z,4135.7
2022-08-03T09:26:06.640Z,3499.8
2022-08-03T09:31:29.252Z,3668.2
2022-08-03T09:38:12.452Z,4139.3
2022-08-03T09:43:36.762Z,4213.4
2022-08-03T09:48:59.819Z,3802.5
2022-08-03T09:54:32.953Z,3506.4
2022-08-03T10:00:08.759Z,4136.6
2022-08-03T10:06:19.609Z,3844.2
2022-08-03T10:11:42.867Z,4111.5
2022-08-03T10:17:05.626Z,4438
2022-08-03T10:22:28.087Z,5271.8
2022-08-03T10:27:50.346Z,4391
2022-08-03T10:33:53.580Z,4592.9
2022-08-03T10:39:16.846Z,4224.9
2022-08-03T10:44:39.131Z,4158.9
2022-08-03T10:50:11.922Z,4613.2
2022-08-03T10:55:36.647Z,4713
2022-08-03T11:00:59.267Z,4698.8
2022-08-03T11:06:29.418Z,4434.4
2022-08-03T11:11:59.839Z,4319.1
2022-08-03T11:17:22.465Z,4322.1
2022-08-03T11:22:44.481Z,4023.2
2022-08-03T11:28:07.374Z,3927.5
2022-08-03T11:38:56.720Z,4411.1
2022-08-03T12:14:52.834Z,4278
2022-08-03T12:20:17.742Z,4225.4
2022-08-03T12:25:50.937Z,4130.9
2022-08-03T12:48:15.427Z,4063.9
2022-08-03T13:04:34.083Z,4106.7
2022-08-03T13:09:57.689Z,3438.4
2022-08-03T13:15:48.646Z,3717.1
2022-08-03T13:26:57.448Z,4286.1
2022-08-03T13:44:30.431Z,3855.6
2022-08-03T13:50:03.929Z,4348.5
2022-08-03T14:01:56.186Z,4286.1
2022-08-03T14:07:29.233Z,4599.9
2022-08-03T14:13:07.557Z,4619.6
2022-08-03T14:24:24.629Z,4336.1
2022-08-03T14:29:48.850Z,4286.4
2022-08-03T14:35:11.974Z,4254.2
2022-08-03T14:40:35.539Z,4271.7
2022-08-03T14:51:38.360Z,4647.2
2022-08-03T15:03:16.826Z,3963
2022-08-03T15:08:39.886Z,3923
2022-08-03T15:14:32.441Z,4032
2022-08-03T15:20:42.940Z,3571.3
2022-08-03T15:26:41.704Z,3406.3
2022-08-03T15:32:10.029Z,3039.4
2022-08-03T15:37:32.287Z,1927.7
2022-08-03T15:44:29.186Z,554.9
2022-08-03T15:49:50.731Z,371.1
2022-08-03T16:00:52.552Z,284.5
2022-08-03T16:06:15.086Z,249
2022-08-03T16:11:38.120Z,215.9
2022-08-03T16:22:56.619Z,159.9
2022-08-03T16:28:20.632Z,157.3
2022-08-03T16:33:44.590Z,131.6
2022-08-03T16:39:06.970Z,148.5
2022-08-03T16:44:29.975Z,152.1
2022-08-03T16:49:58.174Z,147.4
2022-08-03T16:55:54.496Z,140.3
2022-08-03T17:01:37.882Z,137.6
2022-08-03T17:07:00.863Z,138.3
2022-08-03T17:12:27.760Z,131.9
2022-08-03T17:17:56.359Z,126.6
2022-08-03T17:23:36.140Z,118.2
2022-08-03T17:34:27.107Z,107.4
2022-08-03T17:40:00.288Z,110.4
2022-08-03T17:45:22.815Z,101.3
2022-08-03T17:50:56.161Z,93
2022-08-03T17:56:46.857Z,89.6
2022-08-03T18:02:31.347Z,87.2
2022-08-03T18:08:06.870Z,80.1
2022-08-03T18:13:30.709Z,73.7
2022-08-03T18:18:55.427Z,71.6
2022-08-03T18:24:27.391Z,71.4
2022-08-03T18:29:53.014Z,58.1
2022-08-03T18:35:16.801Z,58
2022-08-03T18:40:55.135Z,49.2
2022-08-03T18:46:21.050Z,48.1
2022-08-03T18:51:47.530Z,40.9
2022-08-03T18:57:11.699Z,34.8
2022-08-03T19:02:36.321Z,39.3
2022-08-03T19:08:00.459Z,35.2
2022-08-03T19:13:36.840Z,25.1
2022-08-03T19:24:40.460Z,12
2022-08-03T19:30:26.566Z,5
2022-08-03T19:36:01.164Z,0
2022-08-03T19:41:25.043Z,0
2022-08-03T19:46:47.800Z,0
2022-08-03T19:52:31.165Z,0
2022-08-03T19:57:57.431Z,0
2022-08-03T20:03:25.142Z,0
2022-08-03T20:08:52.323Z,0
2022-08-03T20:14:26.965Z,0
2022-08-03T20:19:57.109Z,0
2022-08-03T20:25:21.457Z,0
2022-08-03T20:30:44.237Z,0
2022-08-03T20:36:06.876Z,0
2022-08-03T20:41:34.582Z,0
2022-08-03T20:47:01.158Z,0
2022-08-03T20:52:26.469Z,0
2022-08-03T20:57:52.096Z,0
2022-08-03T21:08:48.747Z,0
2022-08-03T21:14:11.371Z,0
2022-08-03T21:19:37.108Z,0
2022-08-03T21:25:14.291Z,0
2022-08-03T21:36:03.446Z,0
2022-08-03T21:41:26.537Z,0
2022-08-03T21:46:49.351Z,0
2022-08-03T21:52:12.182Z,0
2022-08-03T21:57:47.986Z,0
2022-08-03T22:03:18.822Z,0
2022-08-03T22:09:05.005Z,0
2022-08-03T22:14:27.568Z,0
2022-08-03T22:19:52.663Z,0
2022-08-03T22:25:15.189Z,0
2022-08-03T22:30:45.063Z,0
2022-08-03T22:36:08.164Z,0
2022-08-03T22:41:30.450Z,0
2022-08-03T22:47:03.714Z,0
2022-08-03T22:52:26.265Z,0
2022-08-03T22:57:56.776Z,0
2022-08-03T23:03:19.810Z,0
2022-08-03T23:08:42.418Z,0
2022-08-03T23:14:04.772Z,0
2022-08-03T23:19:34.456Z,0
2022-08-03T23:36:32.276Z,0
2022-08-03T23:42:04.414Z,0
2022-08-03T23:47:47.828Z,0
2022-08-03T23:53:10.417Z,0
2022-08-03T23:58:35.308Z,0
